Time;durP1;ratioP1;P1;durP2;ratioP2;P2;SDS_P1;SDS_P2;PMS_P1;PMS_P2;Temp;Humidity;BMP_temperature;BMP_pressure;BME280_temperature;BME280_humidity;BME280_pressure;Samples;Min_cycle;Max_cycle;Signal;HPM_P1;HPM_P2
2022/09/16 00:04:33;;;;;;;6.77;3.63;;;;;;;;;;10542471;28;20032;-75
2022/09/16 00:09:37;;;;;;;3.75;2.42;;;;;;;;;;10543455;28;20068;-74
2022/09/16 00:14:39;;;;;;;6.75;3.58;;;;;;;;;;10521055;28;20044;-75
2022/09/16 00:19:44;;;;;;;5.33;2.80;;;;;;;;;;10518344;28;20048;-73
2022/09/16 00:24:48;;;;;;;3.80;1.80;;;;;;;;;;10524232;28;20538;-75
2022/09/16 00:29:51;;;;;;;2.30;1.58;;;;;;;;;;10526163;28;20051;-77
2022/09/16 00:34:56;;;;;;;6.03;3.20;;;;;;;;;;10530659;28;20106;-77
2022/09/16 00:39:58;;;;;;;3.88;2.25;;;;;;;;;;10545125;28;20052;-74
2022/09/16 00:45:03;;;;;;;6.00;3.27;;;;;;;;;;10533805;28;20044;-76
2022/09/16 00:50:09;;;;;;;7.63;3.42;;;;;;;;;;10567114;28;20040;-75
2022/09/16 00:55:15;;;;;;;7.88;3.08;;;;;;;;;;10555573;28;21719;-74
2022/09/16 01:00:18;;;;;;;5.85;3.33;;;;;;;;;;10537359;28;20072;-74
2022/09/16 01:05:25;;;;;;;4.28;2.22;;;;;;;;;;10549428;28;20397;-75
2022/09/16 01:10:30;;;;;;;6.60;3.20;;;;;;;;;;10549653;28;20070;-76
2022/09/16 01:15:35;;;;;;;11.90;4.55;;;;;;;;;;10564765;28;20044;-75
2022/09/16 01:20:59;;;;;;;7.28;3.60;;;;;;;;;;10550491;28;20024;-75
2022/09/16 01:26:08;;;;;;;5.40;3.10;;;;;;;;;;10569901;28;20071;-75
2022/09/16 01:31:15;;;;;;;5.88;3.22;;;;;;;;;;10554520;28;20104;-76
2022/09/16 01:36:25;;;;;;;7.78;3.30;;;;;;;;;;10527656;28;20048;-77
2022/09/16 01:41:35;;;;;;;7.47;3.10;;;;;;;;;;10536000;28;20066;-76
2022/09/16 01:46:43;;;;;;;4.80;2.28;;;;;;;;;;10527345;28;20042;-76
2022/09/16 01:51:49;;;;;;;5.35;2.92;;;;;;;;;;10541926;28;20035;-76
2022/09/16 01:56:53;;;;;;;7.25;3.13;;;;;;;;;;10532887;28;20141;-75
2022/09/16 02:02:00;;;;;;;6.70;3.38;;;;;;;;;;10499512;28;20062;-76
2022/09/16 02:07:05;;;;;;;5.35;3.08;;;;;;;;;;10520040;28;20036;-76
2022/09/16 02:12:11;;;;;;;4.10;2.22;;;;;;;;;;10521061;28;20044;-76
2022/09/16 02:17:17;;;;;;;5.10;3.05;;;;;;;;;;10521764;28;21539;-75
2022/09/16 02:22:24;;;;;;;5.07;2.40;;;;;;;;;;10520922;28;20263;-74
2022/09/16 02:27:27;;;;;;;6.55;3.10;;;;;;;;;;10520082;28;20047;-74
2022/09/16 02:32:33;;;;;;;3.55;1.60;;;;;;;;;;10522251;28;20132;-77
2022/09/16 02:37:39;;;;;;;5.45;3.10;;;;;;;;;;10522883;28;20028;-75
2022/09/16 02:42:41;;;;;;;4.80;2.67;;;;;;;;;;10525141;28;20054;-75
2022/09/16 02:47:54;;;;;;;8.73;3.15;;;;;;;;;;10530516;28;20036;-76
2022/09/16 02:52:59;;;;;;;7.15;3.28;;;;;;;;;;10517495;28;20123;-75
2022/09/16 02:58:01;;;;;;;7.95;3.40;;;;;;;;;;10511937;28;20425;-75
2022/09/16 03:03:06;;;;;;;5.23;2.87;;;;;;;;;;10517018;28;20044;-75
2022/09/16 03:08:09;;;;;;;5.93;3.22;;;;;;;;;;10513532;28;20117;-75
2022/09/16 03:13:12;;;;;;;6.63;3.70;;;;;;;;;;10533178;28;20044;-75
2022/09/16 03:18:28;;;;;;;7.22;3.40;;;;;;;;;;10543557;28;20457;-75
2022/09/16 03:23:38;;;;;;;9.93;2.97;;;;;;;;;;10518306;28;20048;-75
2022/09/16 03:28:43;;;;;;;8.60;4.22;;;;;;;;;;10529482;28;20037;-75
2022/09/16 03:33:49;;;;;;;8.68;4.03;;;;;;;;;;10545068;28;20492;-75
2022/09/16 03:38:53;;;;;;;7.22;3.60;;;;;;;;;;10530995;28;20064;-75
2022/09/16 03:43:57;;;;;;;5.80;3.42;;;;;;;;;;10539699;28;20045;-75
2022/09/16 03:49:06;;;;;;;8.13;3.67;;;;;;;;;;10510242;28;20064;-76
2022/09/16 03:54:09;;;;;;;7.38;3.95;;;;;;;;;;10523780;28;20105;-75
2022/09/16 03:59:12;;;;;;;7.33;4.03;;;;;;;;;;10524648;28;20048;-74
2022/09/16 04:04:16;;;;;;;8.00;4.03;;;;;;;;;;10525970;28;20042;-75
2022/09/16 04:09:19;;;;;;;10.43;4.18;;;;;;;;;;10519647;28;20511;-75
2022/09/16 04:14:22;;;;;;;8.52;3.65;;;;;;;;;;10519313;28;20093;-75
2022/09/16 04:19:26;;;;;;;7.60;3.90;;;;;;;;;;10546151;28;20067;-74
2022/09/16 04:24:29;;;;;;;8.55;3.63;;;;;;;;;;10540197;28;20489;-76
2022/09/16 04:29:31;;;;;;;9.07;4.43;;;;;;;;;;10532329;28;20133;-74
2022/09/16 04:34:36;;;;;;;7.63;3.28;;;;;;;;;;10525363;28;20040;-82
2022/09/16 04:39:39;;;;;;;9.20;4.57;;;;;;;;;;10524078;28;20036;-82
2022/09/16 04:44:42;;;;;;;9.23;4.50;;;;;;;;;;10539557;28;20052;-82
2022/09/16 04:49:46;;;;;;;8.43;3.92;;;;;;;;;;10521470;28;20115;-82
2022/09/16 04:54:49;;;;;;;9.13;3.47;;;;;;;;;;10539818;28;20276;-82
2022/09/16 04:59:52;;;;;;;11.00;5.03;;;;;;;;;;10526791;28;20112;-81
2022/09/16 05:04:56;;;;;;;9.02;4.75;;;;;;;;;;10539238;28;20187;-82
2022/09/16 05:09:59;;;;;;;8.25;4.25;;;;;;;;;;10538791;28;20110;-82
2022/09/16 05:15:02;;;;;;;10.73;4.28;;;;;;;;;;10531018;28;20073;-81
2022/09/16 05:20:06;;;;;;;11.77;5.43;;;;;;;;;;10539120;28;20489;-81
2022/09/16 05:25:09;;;;;;;8.90;4.90;;;;;;;;;;10532893;28;20094;-80
2022/09/16 05:30:13;;;;;;;9.47;5.00;;;;;;;;;;10519482;28;20131;-82
2022/09/16 05:35:17;;;;;;;10.30;5.45;;;;;;;;;;10519980;28;20134;-75
2022/09/16 05:40:21;;;;;;;10.85;5.63;;;;;;;;;;10545028;28;20036;-76
2022/09/16 05:45:24;;;;;;;11.32;5.90;;;;;;;;;;10524633;28;20071;-76
2022/09/16 05:50:35;;;;;;;13.55;6.57;;;;;;;;;;10519915;28;20042;-76
2022/09/16 05:55:38;;;;;;;11.85;6.15;;;;;;;;;;10495312;28;20076;-77
2022/09/16 06:00:40;;;;;;;12.23;5.22;;;;;;;;;;10514729;28;20043;-76
2022/09/16 06:05:44;;;;;;;9.30;4.95;;;;;;;;;;10514137;28;20047;-77
2022/09/16 06:10:47;;;;;;;8.65;3.88;;;;;;;;;;10519789;28;20059;-76
2022/09/16 06:15:52;;;;;;;13.23;5.88;;;;;;;;;;10496716;28;20032;-77
2022/09/16 06:20:57;;;;;;;12.35;5.72;;;;;;;;;;10518216;28;20052;-76
2022/09/16 06:26:00;;;;;;;9.88;5.13;;;;;;;;;;10514920;28;20036;-76
2022/09/16 06:31:05;;;;;;;12.65;5.05;;;;;;;;;;10528631;28;20459;-76
2022/09/16 06:36:11;;;;;;;12.63;4.78;;;;;;;;;;10495000;28;20056;-76
2022/09/16 06:41:15;;;;;;;10.02;5.53;;;;;;;;;;10512634;28;20059;-76
2022/09/16 06:46:17;;;;;;;;;;;;;;;;;;10504767;28;20131;-76
2022/09/16 06:51:22;;;;;;;15.48;6.97;;;;;;;;;;10518847;28;19927;-76
2022/09/16 06:56:25;;;;;;;11.23;5.40;;;;;;;;;;10505988;28;20044;-76
2022/09/16 07:01:29;;;;;;;11.52;5.47;;;;;;;;;;10512949;28;20032;-76
2022/09/16 07:06:34;;;;;;;12.48;6.22;;;;;;;;;;10501749;28;20032;-76
2022/09/16 07:11:58;;;;;;;15.63;6.35;;;;;;;;;;10506883;28;20123;-76
2022/09/16 07:17:00;;;;;;;11.38;5.70;;;;;;;;;;10483910;28;20075;-76
2022/09/16 07:22:05;;;;;;;14.10;6.67;;;;;;;;;;10507788;28;20055;-75
2022/09/16 07:27:07;;;;;;;11.82;6.50;;;;;;;;;;10516920;28;20306;-76
2022/09/16 07:32:10;;;;;;;13.73;6.55;;;;;;;;;;10529808;28;20122;-77
2022/09/16 07:37:17;;;;;;;10.63;5.65;;;;;;;;;;10527955;28;20046;-74
2022/09/16 07:42:24;;;;;;;12.75;6.75;;;;;;;;;;10533265;28;20039;-75
2022/09/16 07:47:27;;;;;;;13.38;6.10;;;;;;;;;;10506342;28;20313;-76
2022/09/16 07:52:31;;;;;;;12.93;6.03;;;;;;;;;;10507684;28;20056;-76
2022/09/16 07:57:34;;;;;;;16.25;6.47;;;;;;;;;;10518378;28;20059;-76
2022/09/16 08:02:36;;;;;;;12.43;6.45;;;;;;;;;;10516108;28;20059;-76
2022/09/16 08:07:41;;;;;;;9.03;4.03;;;;;;;;;;10526875;28;20059;-77
2022/09/16 08:12:46;;;;;;;13.43;6.20;;;;;;;;;;10537637;28;20056;-77
2022/09/16 08:17:50;;;;;;;15.60;6.40;;;;;;;;;;10522862;28;20118;-80
2022/09/16 08:22:54;;;;;;;16.50;6.50;;;;;;;;;;10537500;28;20043;-80
2022/09/16 08:27:59;;;;;;;15.38;5.82;;;;;;;;;;10539386;28;20142;-81
2022/09/16 08:33:02;;;;;;;11.87;5.90;;;;;;;;;;10514715;28;20048;-81
2022/09/16 08:38:06;;;;;;;11.73;5.87;;;;;;;;;;10531231;28;20054;-83
2022/09/16 08:43:12;;;;;;;12.40;4.38;;;;;;;;;;10518445;28;20036;-81
2022/09/16 08:48:24;;;;;;;10.23;5.93;;;;;;;;;;10506135;28;20162;-81
2022/09/16 08:53:35;;;;;;;10.55;5.22;;;;;;;;;;10525215;28;20131;-82
2022/09/16 08:58:39;;;;;;;8.05;4.40;;;;;;;;;;10511627;28;20063;-81
2022/09/16 09:03:43;;;;;;;12.55;5.93;;;;;;;;;;10489962;28;20043;-82
2022/09/16 09:08:50;;;;;;;10.70;5.43;;;;;;;;;;10510604;28;20366;-81
2022/09/16 09:14:05;;;;;;;11.23;5.93;;;;;;;;;;10527909;28;20043;-81
2022/09/16 09:19:18;;;;;;;11.25;5.65;;;;;;;;;;10517666;28;20032;-82
2022/09/16 09:24:42;;;;;;;10.52;5.72;;;;;;;;;;10508867;28;20055;-82
2022/09/16 09:29:51;;;;;;;10.30;5.13;;;;;;;;;;10495794;28;20063;-82
2022/09/16 09:35:00;;;;;;;13.40;5.63;;;;;;;;;;10512574;28;20131;-83
2022/09/16 09:40:09;;;;;;;13.15;6.05;;;;;;;;;;10518745;28;20125;-81
2022/09/16 09:45:17;;;;;;;12.80;5.78;;;;;;;;;;10496215;28;20119;-82
2022/09/16 09:50:23;;;;;;;11.77;6.18;;;;;;;;;;10520465;28;20039;-82
2022/09/16 09:55:31;;;;;;;11.40;6.47;;;;;;;;;;10512393;28;20075;-82
2022/09/16 10:00:37;;;;;;;14.50;7.20;;;;;;;;;;10507122;28;20129;-81
2022/09/16 10:05:40;;;;;;;16.77;6.63;;;;;;;;;;10514303;28;20504;-82
2022/09/16 10:10:47;;;;;;;16.05;7.15;;;;;;;;;;10522712;28;20176;-82
2022/09/16 10:15:53;;;;;;;14.35;7.13;;;;;;;;;;10517172;28;20046;-83
2022/09/16 10:20:59;;;;;;;20.05;8.57;;;;;;;;;;10536520;28;20139;-82
2022/09/16 10:26:07;;;;;;;15.48;7.65;;;;;;;;;;10531388;28;20631;-83
2022/09/16 10:31:10;;;;;;;18.92;8.93;;;;;;;;;;10534895;28;20032;-81
2022/09/16 10:36:13;;;;;;;;;;;;;;;;;;10529552;28;20082;-81
2022/09/16 10:41:19;;;;;;;16.10;7.50;;;;;;;;;;10492278;28;20027;-82
2022/09/16 10:46:22;;;;;;;20.33;9.50;;;;;;;;;;10515109;28;20090;-83
2022/09/16 10:51:30;;;;;;;10.10;5.53;;;;;;;;;;10525844;28;20167;-83
2022/09/16 10:56:46;;;;;;;9.55;4.93;;;;;;;;;;10515670;28;20066;-83
2022/09/16 11:01:55;;;;;;;12.13;4.88;;;;;;;;;;10516086;28;20044;-83
2022/09/16 11:07:07;;;;;;;10.35;4.30;;;;;;;;;;10510943;28;20437;-82
2022/09/16 11:12:25;;;;;;;10.68;5.10;;;;;;;;;;10507878;28;20103;-82
2022/09/16 11:17:38;;;;;;;8.75;5.07;;;;;;;;;;10527874;28;20156;-82
2022/09/16 11:22:46;;;;;;;10.00;5.22;;;;;;;;;;10527461;28;20453;-81
2022/09/16 11:27:54;;;;;;;11.65;5.55;;;;;;;;;;10526807;28;21012;-81
2022/09/16 11:33:06;;;;;;;13.32;5.03;;;;;;;;;;10525374;28;20036;-82
2022/09/16 11:38:16;;;;;;;9.27;5.07;;;;;;;;;;10531334;28;20826;-81
2022/09/16 11:43:37;;;;;;;8.65;4.68;;;;;;;;;;10490149;28;20122;-81
2022/09/16 11:48:44;;;;;;;12.60;4.22;;;;;;;;;;10520237;28;20040;-82
2022/09/16 11:53:58;;;;;;;6.68;3.83;;;;;;;;;;10516791;28;20460;-82
2022/09/16 11:59:10;;;;;;;7.43;3.85;;;;;;;;;;10530556;28;20550;-83
2022/09/16 12:04:17;;;;;;;10.02;4.82;;;;;;;;;;10517669;28;20068;-82
2022/09/16 12:09:24;;;;;;;8.82;4.68;;;;;;;;;;10524704;28;20131;-81
2022/09/16 12:14:30;;;;;;;9.10;4.45;;;;;;;;;;10525987;28;20484;-81
2022/09/16 12:19:34;;;;;;;8.88;4.60;;;;;;;;;;10536891;28;20044;-82
2022/09/16 12:24:41;;;;;;;7.90;4.32;;;;;;;;;;10524378;28;20032;-81
2022/09/16 12:29:56;;;;;;;8.25;4.20;;;;;;;;;;10499765;28;20044;-83
2022/09/16 12:35:01;;;;;;;8.02;3.97;;;;;;;;;;10508617;28;20039;-83
2022/09/16 12:40:05;;;;;;;7.60;4.07;;;;;;;;;;10518956;28;20534;-81
2022/09/16 12:45:32;;;;;;;9.65;4.45;;;;;;;;;;10494789;28;20063;-80
2022/09/16 12:50:49;;;;;;;6.97;3.50;;;;;;;;;;10501652;28;20497;-79
2022/09/16 12:56:01;;;;;;;9.20;3.80;;;;;;;;;;10522728;28;20269;-78
2022/09/16 13:01:12;;;;;;;5.45;2.92;;;;;;;;;;10524622;28;20618;-79
2022/09/16 13:06:21;;;;;;;4.57;2.83;;;;;;;;;;10523612;28;20559;-78
2022/09/16 13:11:24;;;;;;;4.28;2.30;;;;;;;;;;10528088;28;20481;-79
2022/09/16 13:16:52;;;;;;;7.88;2.92;;;;;;;;;;10527507;28;20370;-79
2022/09/16 13:21:58;;;;;;;4.25;2.50;;;;;;;;;;10514007;28;20476;-79
2022/09/16 13:27:01;;;;;;;6.30;2.72;;;;;;;;;;10531977;28;20055;-80
2022/09/16 13:32:04;;;;;;;7.90;3.00;;;;;;;;;;10536901;28;20449;-80
2022/09/16 13:37:16;;;;;;;4.80;3.00;;;;;;;;;;10521163;28;20044;-80
2022/09/16 13:42:20;;;;;;;6.00;3.00;;;;;;;;;;10529258;28;20043;-80
2022/09/16 13:47:33;;;;;;;6.68;3.03;;;;;;;;;;10539437;28;20045;-79
2022/09/16 13:52:37;;;;;;;7.78;3.08;;;;;;;;;;10526638;28;20126;-80
2022/09/16 13:57:51;;;;;;;4.78;2.50;;;;;;;;;;10523419;28;20064;-80
2022/09/16 14:03:11;;;;;;;5.07;2.58;;;;;;;;;;10513407;28;20417;-79
2022/09/16 14:08:19;;;;;;;4.20;2.22;;;;;;;;;;10512641;28;20454;-78
2022/09/16 14:13:23;;;;;;;5.15;2.38;;;;;;;;;;10520917;28;20040;-80
2022/09/16 14:18:28;;;;;;;6.95;2.40;;;;;;;;;;10513129;28;20035;-79
2022/09/16 14:23:33;;;;;;;5.90;3.25;;;;;;;;;;10541455;28;20052;-80
2022/09/16 14:28:36;;;;;;;5.55;2.90;;;;;;;;;;10525147;28;20032;-79
2022/09/16 14:33:42;;;;;;;8.00;3.15;;;;;;;;;;10528262;28;20071;-78
2022/09/16 14:38:48;;;;;;;5.03;2.00;;;;;;;;;;10528201;28;20048;-79
2022/09/16 14:43:59;;;;;;;3.80;1.55;;;;;;;;;;10526031;28;20040;-79
2022/09/16 14:49:03;;;;;;;5.47;2.83;;;;;;;;;;10515151;28;20043;-78
2022/09/16 14:54:15;;;;;;;2.17;1.30;;;;;;;;;;10517328;28;20432;-80
2022/09/16 14:59:18;;;;;;;3.95;2.22;;;;;;;;;;10524353;28;20036;-79
2022/09/16 15:04:25;;;;;;;3.45;2.05;;;;;;;;;;10505696;28;20040;-79
2022/09/16 15:09:36;;;;;;;8.63;3.53;;;;;;;;;;10516515;28;20035;-78
2022/09/16 15:14:39;;;;;;;5.93;3.00;;;;;;;;;;10514123;28;20746;-79
2022/09/16 15:19:42;;;;;;;7.10;3.27;;;;;;;;;;10535856;28;20118;-80
2022/09/16 15:24:47;;;;;;;5.43;3.00;;;;;;;;;;10522298;28;20038;-78
2022/09/16 15:29:56;;;;;;;6.15;3.00;;;;;;;;;;10536119;28;20353;-79
2022/09/16 15:35:15;;;;;;;7.30;3.00;;;;;;;;;;10517471;28;20150;-79
2022/09/16 15:40:28;;;;;;;3.45;1.92;;;;;;;;;;10533423;28;20131;-79
2022/09/16 15:45:32;;;;;;;8.02;3.75;;;;;;;;;;10550682;28;20131;-79
2022/09/16 15:50:38;;;;;;;7.18;3.20;;;;;;;;;;10527530;28;20040;-79
2022/09/16 15:55:51;;;;;;;4.97;2.85;;;;;;;;;;10518713;28;20044;-79
2022/09/16 16:00:58;;;;;;;7.38;3.42;;;;;;;;;;10530131;28;20033;-79
2022/09/16 16:06:03;;;;;;;4.28;2.80;;;;;;;;;;10541673;28;20048;-79
2022/09/16 16:11:08;;;;;;;1.70;1.13;;;;;;;;;;10542389;28;20498;-78
2022/09/16 16:16:13;;;;;;;4.57;2.40;;;;;;;;;;10527796;28;20059;-78
2022/09/16 16:21:16;;;;;;;6.00;2.78;;;;;;;;;;10506737;28;20036;-78
2022/09/16 16:26:20;;;;;;;6.40;2.83;;;;;;;;;;10537835;28;20113;-79
2022/09/16 16:31:23;;;;;;;3.28;1.92;;;;;;;;;;10532435;28;20416;-80
2022/09/16 16:36:26;;;;;;;5.18;3.00;;;;;;;;;;10538092;28;20036;-79
2022/09/16 16:41:32;;;;;;;2.72;1.67;;;;;;;;;;10548383;28;20028;-79
2022/09/16 16:46:35;;;;;;;3.22;1.63;;;;;;;;;;10550816;28;20043;-80
2022/09/16 16:51:38;;;;;;;5.67;3.17;;;;;;;;;;10545006;28;20031;-78
2022/09/16 16:56:42;;;;;;;8.83;4.10;;;;;;;;;;10520366;28;20047;-79
2022/09/16 17:01:46;;;;;;;4.22;1.90;;;;;;;;;;10530895;28;20031;-80
2022/09/16 17:06:50;;;;;;;8.63;3.55;;;;;;;;;;10536349;28;20048;-79
2022/09/16 17:12:16;;;;;;;6.80;3.53;;;;;;;;;;10528925;28;20119;-78
2022/09/16 17:17:19;;;;;;;5.22;3.10;;;;;;;;;;10538495;28;20404;-78
2022/09/16 17:22:22;;;;;;;8.77;4.13;;;;;;;;;;10525515;28;20032;-78
2022/09/16 17:27:28;;;;;;;5.88;3.13;;;;;;;;;;10533165;28;20070;-78
2022/09/16 17:32:31;;;;;;;5.85;2.65;;;;;;;;;;10537794;28;20042;-80
2022/09/16 17:37:34;;;;;;;7.57;2.70;;;;;;;;;;10528484;28;20592;-78
2022/09/16 17:42:41;;;;;;;4.28;1.55;;;;;;;;;;10528853;28;20044;-78
2022/09/16 17:47:45;;;;;;;5.88;2.88;;;;;;;;;;10498798;28;20453;-79
2022/09/16 17:53:04;;;;;;;4.93;2.15;;;;;;;;;;10516823;28;20143;-78
2022/09/16 17:58:29;;;;;;;8.80;4.00;;;;;;;;;;10495127;28;20105;-78
2022/09/16 18:03:42;;;;;;;7.78;4.07;;;;;;;;;;10510431;28;20138;-80
2022/09/16 18:08:53;;;;;;;8.48;4.20;;;;;;;;;;10541975;28;20461;-79
2022/09/16 18:14:03;;;;;;;8.90;3.88;;;;;;;;;;10543743;28;20047;-80
2022/09/16 18:19:12;;;;;;;4.60;2.83;;;;;;;;;;10537836;28;20144;-77
2022/09/16 18:24:20;;;;;;;8.00;2.60;;;;;;;;;;10540894;28;20040;-78
2022/09/16 18:29:40;;;;;;;6.03;3.08;;;;;;;;;;10500071;28;20047;-79
2022/09/16 18:34:44;;;;;;;8.23;4.32;;;;;;;;;;10512135;28;20101;-77
2022/09/16 18:39:48;;;;;;;6.50;3.35;;;;;;;;;;10529939;28;20068;-78
2022/09/16 18:44:58;;;;;;;3.78;1.75;;;;;;;;;;10502004;28;20036;-79
2022/09/16 18:50:07;;;;;;;9.82;4.53;;;;;;;;;;10522532;28;20036;-79
2022/09/16 18:55:13;;;;;;;8.63;4.28;;;;;;;;;;10497540;28;20097;-79
2022/09/16 19:00:47;;;;;;;10.07;3.60;;;;;;;;;;10503832;28;20442;-79
2022/09/16 19:05:59;;;;;;;7.38;4.05;;;;;;;;;;10514693;28;20051;-78
2022/09/16 19:11:19;;;;;;;8.85;3.90;;;;;;;;;;10519911;28;20127;-79
2022/09/16 19:16:34;;;;;;;4.40;2.45;;;;;;;;;;10524070;28;20453;-79
2022/09/16 19:21:51;;;;;;;7.65;3.65;;;;;;;;;;10510448;28;20044;-79
2022/09/16 19:27:03;;;;;;;4.63;2.43;;;;;;;;;;10489750;28;20059;-78
2022/09/16 19:32:16;;;;;;;11.63;5.07;;;;;;;;;;10531278;28;20040;-79
2022/09/16 19:37:21;;;;;;;6.32;3.33;;;;;;;;;;10490593;28;20098;-77
2022/09/16 19:42:29;;;;;;;3.92;2.78;;;;;;;;;;10499013;28;20249;-78
2022/09/16 19:47:35;;;;;;;7.70;3.28;;;;;;;;;;10518898;28;20036;-78
2022/09/16 19:52:50;;;;;;;10.00;4.47;;;;;;;;;;10512883;28;20458;-77
2022/09/16 19:57:59;;;;;;;9.77;4.55;;;;;;;;;;10524825;28;20519;-78
2022/09/16 20:03:06;;;;;;;5.72;2.72;;;;;;;;;;10533518;28;20098;-79
2022/09/16 20:08:17;;;;;;;7.13;3.10;;;;;;;;;;10499993;28;20052;-78
2022/09/16 20:13:22;;;;;;;9.57;4.10;;;;;;;;;;10486579;28;20039;-79
2022/09/16 20:18:31;;;;;;;7.80;3.80;;;;;;;;;;10511410;28;20082;-78
2022/09/16 20:23:40;;;;;;;10.10;4.45;;;;;;;;;;10510695;28;20044;-79
2022/09/16 20:28:49;;;;;;;8.00;3.97;;;;;;;;;;10515048;28;20052;-79
2022/09/16 20:33:54;;;;;;;8.18;3.67;;;;;;;;;;10498411;28;20068;-79
2022/09/16 20:39:08;;;;;;;3.47;1.60;;;;;;;;;;10528398;28;20052;-79
2022/09/16 20:44:25;;;;;;;4.35;2.15;;;;;;;;;;10509693;28;20058;-78
2022/09/16 20:49:32;;;;;;;8.48;3.50;;;;;;;;;;10520264;28;20040;-79
2022/09/16 20:55:05;;;;;;;5.53;3.72;;;;;;;;;;10495408;28;20050;-79
2022/09/16 21:00:17;;;;;;;5.55;3.30;;;;;;;;;;10526159;28;20509;-80
2022/09/16 21:05:26;;;;;;;4.95;2.75;;;;;;;;;;10511556;28;20058;-78
2022/09/16 21:10:34;;;;;;;7.35;3.95;;;;;;;;;;10514500;28;20096;-78
2022/09/16 21:15:47;;;;;;;7.95;3.90;;;;;;;;;;10519742;28;20148;-79
2022/09/16 21:21:05;;;;;;;7.38;4.22;;;;;;;;;;10521741;28;20437;-79
2022/09/16 21:26:27;;;;;;;7.35;3.75;;;;;;;;;;10521639;28;20043;-78
2022/09/16 21:31:46;;;;;;;3.88;2.35;;;;;;;;;;10526468;28;20097;-79
2022/09/16 21:36:54;;;;;;;7.57;3.92;;;;;;;;;;10503501;28;20417;-78
2022/09/16 21:42:05;;;;;;;10.00;4.05;;;;;;;;;;10511214;28;20559;-78
2022/09/16 21:47:22;;;;;;;7.72;4.03;;;;;;;;;;10514293;28;20173;-79
2022/09/16 21:52:26;;;;;;;7.40;3.00;;;;;;;;;;10520385;28;20056;-78
2022/09/16 21:57:31;;;;;;;10.77;4.50;;;;;;;;;;10525445;28;20083;-79
2022/09/16 22:02:39;;;;;;;9.18;4.55;;;;;;;;;;10522417;28;20040;-78
2022/09/16 22:07:45;;;;;;;12.27;4.85;;;;;;;;;;10501666;28;20142;-79
2022/09/16 22:13:10;;;;;;;6.07;3.13;;;;;;;;;;10527609;28;20122;-79
2022/09/16 22:18:32;;;;;;;5.57;2.88;;;;;;;;;;10518267;28;20044;-78
2022/09/16 22:23:37;;;;;;;11.73;5.03;;;;;;;;;;10518395;28;20548;-78
2022/09/16 22:28:46;;;;;;;11.68;4.38;;;;;;;;;;10515973;28;20097;-78
2022/09/16 22:33:58;;;;;;;4.88;2.88;;;;;;;;;;10499056;28;20044;-78
2022/09/16 22:39:17;;;;;;;5.10;2.38;;;;;;;;;;10525204;28;20063;-78
2022/09/16 22:44:32;;;;;;;6.90;3.17;;;;;;;;;;10523302;28;20048;-78
2022/09/16 22:49:41;;;;;;;10.15;3.90;;;;;;;;;;10505915;28;20044;-78
2022/09/16 22:54:49;;;;;;;6.22;3.78;;;;;;;;;;10482834;28;20095;-78
2022/09/16 23:00:01;;;;;;;6.40;3.55;;;;;;;;;;10500936;28;20040;-79
2022/09/16 23:05:12;;;;;;;5.30;2.58;;;;;;;;;;10513092;28;20282;-79
2022/09/16 23:10:17;;;;;;;5.15;2.55;;;;;;;;;;10507435;28;20048;-79
2022/09/16 23:15:26;;;;;;;11.90;4.20;;;;;;;;;;10522003;28;20202;-78
2022/09/16 23:20:42;;;;;;;6.63;3.53;;;;;;;;;;10515933;28;20074;-78
2022/09/16 23:25:53;;;;;;;10.70;4.55;;;;;;;;;;10503182;28;20066;-79
2022/09/16 23:31:06;;;;;;;13.32;4.72;;;;;;;;;;10525867;28;20210;-78
2022/09/16 23:36:22;;;;;;;10.50;5.22;;;;;;;;;;10546418;28;20217;-78
2022/09/16 23:41:32;;;;;;;10.52;4.75;;;;;;;;;;10515471;28;20456;-78
2022/09/16 23:46:36;;;;;;;;;;;;;;;;;;10533710;28;20048;-78
2022/09/16 23:51:47;;;;;;;8.40;4.03;;;;;;;;;;10521951;28;19955;-78
2022/09/16 23:56:59;;;;;;;8.60;3.47;;;;;;;;;;10519378;28;20043;-78
